createdAt,value
2018-06-21T00:02:02.236Z,22.22
2018-06-21T00:04:31.325Z,22.14
2018-06-21T00:07:00.421Z,21.98
2018-06-21T00:09:29.537Z,22.09
2018-06-21T00:11:58.625Z,21.91
2018-06-21T00:14:27.709Z,21.82
2018-06-21T00:16:56.937Z,21.96
2018-06-21T00:19:26.104Z,21.86
2018-06-21T00:21:55.212Z,21.77
2018-06-21T00:24:24.749Z,21.89
2018-06-21T00:26:53.954Z,21.89
2018-06-21T00:29:23.097Z,21.99
2018-06-21T00:31:52.164Z,21.81
2018-06-21T00:34:21.586Z,21.89
2018-06-21T00:36:50.727Z,21.98
2018-06-21T00:39:19.881Z,21.73
2018-06-21T00:41:48.976Z,21.97
2018-06-21T00:44:18.073Z,21.78
2018-06-21T00:46:47.165Z,21.94
2018-06-21T00:49:16.258Z,21.89
2018-06-21T00:51:45.353Z,21.80
2018-06-21T00:54:14.517Z,21.90
2018-06-21T00:56:43.689Z,21.76
2018-06-21T00:59:12.970Z,21.85
2018-06-21T01:01:42.122Z,21.86
2018-06-21T01:04:11.227Z,21.83
2018-06-21T01:06:40.317Z,21.76
2018-06-21T01:09:09.458Z,21.70
2018-06-21T01:11:38.559Z,21.80
2018-06-21T01:14:07.637Z,21.68
2018-06-21T01:16:36.777Z,21.76
2018-06-21T01:19:05.898Z,21.76
2018-06-21T01:21:35.178Z,21.86
2018-06-21T01:24:04.634Z,21.82
2018-06-21T01:26:33.725Z,21.83
2018-06-21T01:29:02.807Z,21.70
2018-06-21T01:31:31.898Z,21.70
2018-06-21T01:34:00.985Z,21.52
2018-06-21T01:36:30.173Z,21.56
2018-06-21T01:38:59.309Z,21.69
2018-06-21T01:41:28.526Z,21.73
2018-06-21T01:43:58.344Z,21.62
2018-06-21T01:46:27.434Z,21.41
2018-06-21T01:48:56.545Z,21.47
2018-06-21T01:51:25.712Z,21.53
2018-06-21T01:53:55.014Z,21.48
2018-06-21T01:56:24.221Z,21.41
2018-06-21T01:58:53.314Z,21.25
2018-06-21T02:01:22.405Z,21.25
2018-06-21T02:03:51.501Z,21.33
2018-06-21T02:06:20.605Z,21.17
2018-06-21T02:08:49.710Z,21.15
2018-06-21T02:11:19.377Z,21.33
2018-06-21T02:13:48.490Z,21.20
2018-06-21T02:16:17.922Z,21.31
2018-06-21T02:18:47.138Z,21.15
2018-06-21T02:21:16.309Z,20.93
2018-06-21T02:23:45.449Z,21.02
2018-06-21T02:26:14.562Z,21.01
2018-06-21T02:28:43.697Z,20.96
2018-06-21T02:31:12.986Z,21.01
2018-06-21T02:33:42.105Z,21.06
2018-06-21T02:36:11.374Z,20.82
2018-06-21T02:38:40.603Z,20.75
2018-06-21T02:41:09.805Z,20.68
2018-06-21T02:43:38.931Z,20.70
2018-06-21T02:46:08.013Z,20.62
2018-06-21T02:48:37.131Z,20.57
2018-06-21T02:51:06.291Z,20.66
2018-06-21T02:53:35.465Z,20.63
2018-06-21T02:56:04.577Z,20.69
2018-06-21T02:58:33.785Z,20.57
2018-06-21T03:01:02.898Z,20.47
2018-06-21T03:03:31.981Z,20.22
2018-06-21T03:06:01.079Z,20.24
2018-06-21T03:08:30.339Z,20.11
2018-06-21T03:10:59.554Z,19.62
2018-06-21T03:13:28.750Z,19.78
2018-06-21T03:15:57.973Z,19.92
2018-06-21T03:18:27.165Z,19.90
2018-06-21T03:20:56.286Z,19.92
2018-06-21T03:23:25.393Z,19.86
2018-06-21T03:25:54.578Z,19.92
2018-06-21T03:28:23.669Z,20.11
2018-06-21T03:30:52.774Z,20.20
2018-06-21T03:33:21.861Z,20.16
2018-06-21T03:35:50.957Z,19.92
2018-06-21T03:38:20.037Z,20.02
2018-06-21T03:40:49.563Z,20.12
2018-06-21T03:43:18.642Z,20.18
2018-06-21T03:45:47.741Z,20.15
2018-06-21T03:48:16.820Z,20.20
2018-06-21T03:50:45.965Z,20.04
2018-06-21T03:53:15.089Z,20.05
2018-06-21T03:55:44.173Z,20.00
2018-06-21T03:58:13.365Z,19.94
2018-06-21T04:00:42.519Z,19.49
2018-06-21T04:03:11.905Z,19.45
2018-06-21T04:05:41.097Z,19.51
2018-06-21T04:08:10.277Z,19.38
2018-06-21T04:10:39.370Z,19.69
2018-06-21T04:13:08.453Z,19.64
2018-06-21T04:15:37.655Z,19.79
2018-06-21T04:18:06.799Z,19.74
2018-06-21T04:20:36.466Z,19.50
2018-06-21T04:23:06.184Z,19.58
2018-06-21T04:25:35.358Z,19.73
2018-06-21T04:28:04.453Z,19.76
2018-06-21T04:30:33.577Z,19.83
2018-06-21T04:33:03.300Z,19.82
2018-06-21T04:35:32.494Z,19.90
2018-06-21T04:38:01.574Z,19.78
2018-06-21T04:40:30.677Z,19.72
2018-06-21T04:42:59.841Z,19.94
2018-06-21T04:45:28.933Z,20.07
2018-06-21T04:47:58.029Z,20.16
2018-06-21T04:50:27.145Z,20.10
2018-06-21T04:52:56.269Z,20.07
2018-06-21T04:55:25.389Z,20.20
2018-06-21T04:57:54.553Z,20.15
2018-06-21T05:00:23.681Z,20.17
2018-06-21T05:02:52.776Z,20.33
2018-06-21T05:05:21.958Z,20.27
2018-06-21T05:07:51.057Z,20.36
2018-06-21T05:10:20.217Z,20.35
2018-06-21T05:12:49.309Z,20.48
2018-06-21T05:15:18.389Z,20.57
2018-06-21T05:17:47.517Z,20.58
2018-06-21T05:20:16.598Z,20.69
2018-06-21T05:22:45.709Z,20.71
2018-06-21T05:25:14.864Z,20.68
2018-06-21T05:27:43.882Z,20.79
2018-06-21T05:30:13.033Z,20.77
2018-06-21T05:32:42.129Z,20.77
2018-06-21T05:35:11.221Z,20.79
2018-06-21T05:37:40.330Z,20.61
2018-06-21T05:40:19.566Z,20.78
2018-06-21T05:42:48.645Z,20.72
2018-06-21T05:45:17.733Z,20.70
2018-06-21T05:47:46.842Z,20.81
2018-06-21T05:50:16.083Z,20.86
2018-06-21T05:52:45.114Z,21.02
2018-06-21T05:55:14.274Z,20.83
2018-06-21T05:57:43.570Z,20.76
2018-06-21T06:00:12.751Z,20.88
2018-06-21T06:02:41.882Z,20.84
2018-06-21T06:05:11.035Z,20.75
2018-06-21T06:07:40.133Z,20.66
2018-06-21T06:10:09.341Z,20.77
2018-06-21T06:12:38.352Z,20.54
2018-06-21T06:15:07.521Z,20.71
2018-06-21T06:17:36.678Z,20.79
2018-06-21T06:20:05.853Z,20.93
2018-06-21T06:22:34.935Z,20.97
2018-06-21T06:25:04.079Z,21.06
2018-06-21T06:27:33.266Z,20.96
2018-06-21T06:30:02.429Z,20.98
2018-06-21T06:32:31.518Z,20.77
2018-06-21T06:35:00.613Z,20.76
2018-06-21T06:37:29.722Z,20.69
2018-06-21T06:39:58.861Z,20.62
2018-06-21T06:42:28.026Z,20.76
2018-06-21T06:44:57.505Z,20.65
2018-06-21T06:47:27.265Z,20.68
2018-06-21T06:49:56.792Z,20.47
2018-06-21T06:52:25.986Z,20.40
2018-06-21T06:54:55.081Z,20.24
2018-06-21T06:57:24.249Z,20.11
2018-06-21T06:59:53.389Z,20.28
2018-06-21T07:02:22.506Z,20.18
2018-06-21T07:04:51.610Z,20.28
2018-06-21T07:07:20.897Z,20.10
2018-06-21T07:09:50.006Z,20.07
2018-06-21T07:12:19.129Z,19.96
2018-06-21T07:14:48.225Z,20.07
2018-06-21T07:17:17.341Z,20.18
2018-06-21T07:19:46.413Z,20.12
2018-06-21T07:22:15.513Z,19.85
2018-06-21T07:24:44.697Z,19.87
2018-06-21T07:27:13.915Z,19.80
2018-06-21T07:29:42.957Z,19.88
2018-06-21T07:32:12.094Z,19.72
2018-06-21T07:34:41.197Z,19.89
2018-06-21T07:37:10.294Z,19.84
2018-06-21T07:39:39.478Z,19.79
2018-06-21T07:42:08.658Z,19.90
2018-06-21T07:44:37.761Z,20.00
2018-06-21T07:47:06.857Z,19.76
2018-06-21T07:49:36.014Z,19.68
2018-06-21T07:52:05.192Z,19.82
2018-06-21T07:54:34.290Z,19.76
2018-06-21T07:57:03.386Z,19.61
2018-06-21T07:59:32.522Z,19.78
2018-06-21T08:02:01.610Z,19.50
2018-06-21T08:04:30.741Z,19.22
2018-06-21T08:06:59.845Z,19.37
2018-06-21T08:09:28.937Z,19.29
2018-06-21T08:11:58.097Z,19.31
2018-06-21T08:14:27.213Z,19.33
2018-06-21T08:16:56.334Z,19.08
2018-06-21T08:19:25.562Z,19.06
2018-06-21T08:21:54.657Z,19.27
2018-06-21T08:24:23.800Z,19.38
2018-06-21T08:26:52.896Z,19.39
2018-06-21T08:29:22.027Z,19.44
2018-06-21T08:31:51.198Z,19.37
2018-06-21T08:34:20.329Z,19.69
2018-06-21T08:36:49.425Z,19.80
2018-06-21T08:39:18.525Z,19.69
2018-06-21T08:41:47.633Z,19.79
2018-06-21T08:44:16.725Z,19.90
2018-06-21T08:46:45.882Z,20.15
2018-06-21T08:49:15.049Z,20.26
2018-06-21T08:51:44.241Z,20.16
2018-06-21T08:54:13.352Z,19.98
2018-06-21T08:56:42.458Z,19.83
2018-06-21T08:59:11.602Z,20.03
2018-06-21T09:01:40.807Z,19.85
2018-06-21T09:04:09.901Z,19.71
2018-06-21T09:06:39.027Z,19.32
2018-06-21T09:09:09.089Z,19.45
2018-06-21T09:11:38.355Z,19.39
2018-06-21T09:14:07.469Z,19.56
2018-06-21T09:16:36.577Z,20.06
2018-06-21T09:19:05.689Z,20.03
2018-06-21T09:21:34.841Z,20.02
2018-06-21T09:24:04.025Z,20.27
2018-06-21T09:26:33.121Z,20.46
2018-06-21T09:29:02.202Z,20.52
2018-06-21T09:31:31.286Z,20.68
2018-06-21T09:34:00.381Z,20.37
2018-06-21T09:36:33.659Z,20.25
2018-06-21T09:39:07.851Z,20.09
2018-06-21T09:41:42.333Z,20.13
2018-06-21T09:44:16.816Z,20.11
2018-06-21T09:46:51.085Z,20.19
2018-06-21T09:49:20.229Z,20.00
2018-06-21T09:51:49.398Z,20.17
2018-06-21T09:54:18.502Z,20.03
2018-06-21T09:56:47.646Z,20.18
2018-06-21T09:59:16.830Z,20.71
2018-06-21T10:01:45.925Z,21.17
2018-06-21T10:04:15.105Z,20.61
2018-06-21T10:06:44.205Z,20.19
2018-06-21T10:09:13.321Z,20.45
2018-06-21T10:11:42.510Z,20.94
2018-06-21T10:14:11.597Z,21.82
2018-06-21T10:16:40.693Z,21.75
2018-06-21T10:19:09.881Z,21.58
2018-06-21T10:21:39.109Z,21.27
2018-06-21T10:24:08.193Z,21.24
2018-06-21T10:26:37.321Z,21.04
2018-06-21T10:29:06.489Z,20.88
2018-06-21T10:31:35.716Z,20.96
2018-06-21T10:34:04.805Z,21.55
2018-06-21T10:36:33.936Z,21.34
2018-06-21T10:39:03.153Z,21.47
2018-06-21T10:41:32.238Z,21.62
2018-06-21T10:44:01.334Z,21.82
2018-06-21T10:46:30.445Z,21.67
2018-06-21T10:48:59.605Z,21.40
2018-06-21T10:51:28.854Z,21.98
2018-06-21T10:53:57.989Z,22.23
2018-06-21T10:56:27.133Z,21.56
2018-06-21T10:58:56.275Z,21.57
2018-06-21T11:01:25.685Z,21.84
2018-06-21T11:03:54.881Z,21.83
2018-06-21T11:06:24.221Z,21.59
2018-06-21T11:08:53.373Z,21.70
2018-06-21T11:11:22.557Z,22.07
2018-06-21T11:13:51.742Z,21.77
2018-06-21T11:16:20.834Z,20.84
2018-06-21T11:18:49.946Z,20.14
2018-06-21T11:21:19.896Z,20.90
2018-06-21T11:23:49.034Z,21.14
2018-06-21T11:26:18.182Z,21.36
2018-06-21T11:28:47.454Z,21.67
2018-06-21T11:31:16.621Z,20.76
2018-06-21T11:33:45.733Z,20.60
2018-06-21T11:36:14.845Z,20.64
2018-06-21T11:38:43.981Z,20.78
2018-06-21T11:41:13.394Z,21.12
2018-06-21T11:43:42.490Z,21.27
2018-06-21T11:46:11.594Z,21.72
2018-06-21T11:48:40.923Z,21.42
2018-06-21T11:51:10.014Z,21.59
2018-06-21T11:53:39.138Z,21.66
2018-06-21T11:56:08.317Z,22.23
2018-06-21T11:58:37.413Z,22.54
2018-06-21T12:01:06.517Z,22.03
2018-06-21T12:03:35.654Z,22.36
2018-06-21T12:06:04.766Z,22.39
2018-06-21T12:08:33.888Z,22.54
2018-06-21T12:11:03.002Z,22.56
2018-06-21T12:13:32.116Z,22.43
2018-06-21T12:16:01.199Z,22.23
2018-06-21T12:18:30.301Z,22.12
2018-06-21T12:20:59.458Z,22.23
2018-06-21T12:23:28.565Z,22.60
2018-06-21T12:25:57.664Z,21.68
2018-06-21T12:28:26.812Z,21.65
2018-06-21T12:30:55.938Z,21.57
2018-06-21T12:33:25.078Z,21.78
2018-06-21T12:35:54.174Z,22.45
2018-06-21T12:38:23.347Z,22.82
2018-06-21T12:40:52.465Z,22.59
2018-06-21T12:43:21.618Z,22.19
2018-06-21T12:45:50.726Z,22.51
2018-06-21T12:48:19.817Z,22.85
2018-06-21T12:50:48.944Z,22.95
2018-06-21T12:53:18.074Z,22.02
2018-06-21T12:55:47.154Z,21.74
2018-06-21T12:58:16.306Z,21.14
2018-06-21T13:00:45.445Z,21.59
2018-06-21T13:03:14.595Z,22.50
2018-06-21T13:05:43.693Z,22.85
2018-06-21T13:08:18.502Z,22.81
2018-06-21T13:10:58.873Z,23.09
2018-06-21T13:13:28.395Z,22.43
2018-06-21T13:15:57.566Z,22.91
2018-06-21T13:18:26.682Z,22.67
2018-06-21T13:20:55.771Z,22.98
2018-06-21T13:23:28.485Z,22.38
2018-06-21T13:25:57.623Z,22.29
2018-06-21T13:28:26.801Z,22.61
2018-06-21T13:30:55.889Z,22.85
2018-06-21T13:33:24.999Z,22.50
2018-06-21T13:35:54.149Z,21.82
2018-06-21T13:38:23.253Z,21.13
2018-06-21T13:40:52.352Z,21.39
2018-06-21T13:43:21.436Z,21.53
2018-06-21T13:45:50.637Z,22.17
2018-06-21T13:48:19.725Z,22.04
2018-06-21T13:50:48.897Z,21.84
2018-06-21T13:53:18.026Z,22.33
2018-06-21T13:55:47.135Z,22.16
2018-06-21T13:58:16.287Z,22.25
2018-06-21T14:00:45.377Z,21.39
2018-06-21T14:03:14.485Z,21.70
2018-06-21T14:05:43.569Z,22.27
2018-06-21T14:08:12.715Z,22.22
2018-06-21T14:10:41.825Z,22.10
2018-06-21T14:13:10.926Z,22.16
2018-06-21T14:15:40.070Z,21.45
2018-06-21T14:18:09.281Z,21.23
2018-06-21T14:20:38.475Z,21.39
2018-06-21T14:23:07.509Z,21.70
2018-06-21T14:25:36.642Z,21.64
2018-06-21T14:28:05.781Z,21.32
2018-06-21T14:30:36.064Z,20.84
2018-06-21T14:33:09.432Z,21.02
2018-06-21T14:35:38.601Z,21.19
2018-06-21T14:38:07.753Z,20.63
2018-06-21T14:40:36.949Z,20.33
2018-06-21T14:43:06.488Z,20.59
2018-06-21T14:45:35.574Z,20.19
2018-06-21T14:48:04.867Z,20.10
2018-06-21T14:50:33.947Z,19.98
2018-06-21T14:53:03.137Z,20.06
2018-06-21T14:55:32.269Z,19.84
2018-06-21T14:58:01.608Z,20.30
2018-06-21T15:00:31.569Z,20.85
2018-06-21T15:03:00.778Z,21.05
2018-06-21T15:05:29.969Z,21.08
2018-06-21T15:07:59.131Z,21.15
2018-06-21T15:10:28.248Z,20.91
2018-06-21T15:12:57.438Z,20.64
2018-06-21T15:15:26.690Z,21.01
2018-06-21T15:17:55.785Z,21.26
2018-06-21T15:20:27.045Z,20.93
2018-06-21T15:22:56.189Z,21.01
2018-06-21T15:25:25.394Z,20.49
2018-06-21T15:27:55.636Z,20.18
2018-06-21T15:30:24.836Z,20.36
2018-06-21T15:32:53.977Z,20.10
2018-06-21T15:35:23.157Z,20.15
2018-06-21T15:37:52.339Z,19.42
2018-06-21T15:40:21.435Z,19.29
2018-06-21T15:42:50.590Z,19.24
2018-06-21T15:45:19.730Z,19.40
2018-06-21T15:47:48.765Z,19.63
2018-06-21T15:50:17.858Z,19.98
2018-06-21T15:52:47.318Z,20.08
2018-06-21T15:55:16.753Z,19.78
2018-06-21T15:57:45.849Z,19.82
2018-06-21T16:00:14.940Z,19.59
2018-06-21T16:02:44.137Z,20.04
2018-06-21T16:05:13.342Z,19.94
2018-06-21T16:07:42.425Z,19.89
2018-06-21T16:10:11.533Z,20.18
2018-06-21T16:12:40.638Z,20.14
2018-06-21T16:15:09.768Z,19.78
2018-06-21T16:17:38.986Z,19.52
2018-06-21T16:20:08.076Z,19.23
2018-06-21T16:22:37.207Z,19.15
2018-06-21T16:25:06.317Z,19.10
2018-06-21T16:27:35.401Z,18.85
2018-06-21T16:30:04.746Z,18.99
2018-06-21T16:32:33.899Z,18.72
2018-06-21T16:35:03.033Z,18.87
2018-06-21T16:37:32.185Z,18.71
2018-06-21T16:40:01.789Z,18.63
2018-06-21T16:42:31.131Z,18.65
2018-06-21T16:45:00.338Z,18.57
2018-06-21T16:47:29.508Z,18.85
2018-06-21T16:49:58.604Z,18.92
2018-06-21T16:52:27.849Z,18.61
2018-06-21T16:54:57.038Z,18.81
2018-06-21T16:57:26.155Z,18.67
2018-06-21T16:59:55.257Z,18.80
2018-06-21T17:02:24.406Z,18.62
2018-06-21T17:04:53.529Z,18.46
2018-06-21T17:07:22.645Z,18.49
2018-06-21T17:09:51.782Z,18.36
2018-06-21T17:12:20.898Z,18.39
2018-06-21T17:14:50.014Z,18.04
2018-06-21T17:17:19.146Z,18.05
2018-06-21T17:19:48.870Z,18.20
2018-06-21T17:22:18.017Z,18.12
2018-06-21T17:24:47.121Z,18.01
2018-06-21T17:27:16.333Z,18.29
2018-06-21T17:29:45.421Z,18.29
2018-06-21T17:32:14.533Z,18.26
2018-06-21T17:34:43.651Z,18.18
2018-06-21T17:37:12.786Z,18.10
2018-06-21T17:39:41.865Z,18.33
2018-06-21T17:42:10.954Z,18.57
2018-06-21T17:44:40.033Z,18.61
2018-06-21T17:47:09.165Z,18.00
2018-06-21T17:49:38.241Z,18.11
2018-06-21T17:52:07.375Z,18.04
2018-06-21T17:54:36.485Z,18.02
2018-06-21T17:57:05.621Z,17.95
2018-06-21T17:59:34.725Z,17.94
2018-06-21T18:02:03.926Z,18.20
2018-06-21T18:04:33.005Z,18.12
2018-06-21T18:07:02.137Z,18.10
2018-06-21T18:09:31.410Z,18.01
2018-06-21T18:12:00.553Z,18.03
2018-06-21T18:14:29.968Z,17.77
2018-06-21T18:16:59.069Z,17.63
2018-06-21T18:19:28.310Z,17.66
2018-06-21T18:21:57.437Z,17.58
2018-06-21T18:24:26.654Z,17.67
2018-06-21T18:26:55.760Z,17.52
2018-06-21T18:29:24.841Z,17.39
2018-06-21T18:31:54.381Z,17.33
2018-06-21T18:34:23.499Z,17.25
2018-06-21T18:36:52.603Z,17.16
2018-06-21T18:39:21.729Z,17.17
2018-06-21T18:41:50.813Z,17.14
2018-06-21T18:44:19.929Z,17.00
2018-06-21T18:46:49.021Z,17.12
2018-06-21T18:49:18.108Z,17.08
2018-06-21T18:51:47.194Z,17.20
2018-06-21T18:54:16.328Z,17.25
2018-06-21T18:56:45.451Z,17.19
2018-06-21T18:59:14.582Z,16.95
2018-06-21T19:01:43.729Z,17.02
2018-06-21T19:04:13.470Z,16.88
2018-06-21T19:06:49.453Z,16.89
2018-06-21T19:09:23.797Z,16.74
2018-06-21T19:11:55.748Z,16.88
2018-06-21T19:14:24.853Z,16.82
2018-06-21T19:16:53.949Z,16.79
2018-06-21T19:19:23.076Z,16.82
2018-06-21T19:21:52.230Z,16.80
2018-06-21T19:24:21.358Z,16.91
2018-06-21T19:26:50.453Z,16.87
2018-06-21T19:29:19.570Z,16.99
2018-06-21T19:31:48.653Z,16.72
2018-06-21T19:34:17.753Z,16.76
2018-06-21T19:36:46.837Z,16.61
2018-06-21T19:39:15.953Z,16.67
2018-06-21T19:41:45.086Z,16.55
2018-06-21T19:44:14.163Z,16.62
2018-06-21T19:46:43.253Z,16.66
2018-06-21T19:49:12.425Z,16.66
2018-06-21T19:51:41.702Z,16.50
2018-06-21T19:54:10.976Z,16.40
2018-06-21T19:56:40.050Z,16.37
2018-06-21T19:59:09.155Z,16.49
2018-06-21T20:01:38.225Z,16.37
2018-06-21T20:04:07.318Z,16.18
2018-06-21T20:06:36.462Z,16.13
2018-06-21T20:09:08.173Z,16.21
2018-06-21T20:11:38.345Z,16.22
2018-06-21T20:14:07.431Z,16.17
2018-06-21T20:16:36.525Z,16.22
2018-06-21T20:19:10.086Z,16.17
2018-06-21T20:21:39.248Z,16.01
2018-06-21T20:24:08.634Z,16.02
2018-06-21T20:26:37.734Z,15.91
2018-06-21T20:29:12.145Z,15.77
2018-06-21T20:31:41.541Z,15.80
2018-06-21T20:34:10.690Z,15.76
2018-06-21T20:36:39.805Z,15.76
2018-06-21T20:39:10.276Z,15.76
2018-06-21T20:41:39.380Z,15.76
2018-06-21T20:44:08.514Z,15.67
2018-06-21T20:46:37.578Z,15.73
2018-06-21T20:49:06.705Z,15.52
2018-06-21T20:51:35.792Z,15.57
2018-06-21T20:54:04.945Z,15.61
2018-06-21T20:56:34.099Z,15.65
2018-06-21T20:59:03.225Z,15.37
2018-06-21T21:01:32.296Z,15.46
2018-06-21T21:04:01.362Z,15.31
2018-06-21T21:06:30.409Z,15.38
2018-06-21T21:08:59.474Z,15.43
2018-06-21T21:11:28.513Z,15.25
2018-06-21T21:13:57.569Z,15.27
2018-06-21T21:16:26.625Z,15.23
2018-06-21T21:18:55.713Z,15.44
2018-06-21T21:21:24.757Z,15.37
2018-06-21T21:23:53.898Z,15.29
2018-06-21T21:26:23.487Z,15.15
2018-06-21T21:28:52.653Z,15.13
2018-06-21T21:31:21.705Z,15.03
2018-06-21T21:33:50.799Z,14.89
2018-06-21T21:36:19.877Z,14.89
2018-06-21T21:38:49.612Z,14.91
2018-06-21T21:41:18.682Z,14.88
2018-06-21T21:43:47.838Z,14.81
2018-06-21T21:46:16.897Z,14.71
2018-06-21T21:48:46.076Z,14.65
2018-06-21T21:51:15.169Z,14.68
2018-06-21T21:53:44.596Z,14.73
2018-06-21T21:56:13.669Z,14.60
2018-06-21T21:58:42.717Z,14.51
2018-06-21T22:01:11.791Z,14.27
2018-06-21T22:03:40.841Z,14.55
2018-06-21T22:06:09.889Z,14.52
2018-06-21T22:08:39.069Z,14.48
2018-06-21T22:11:08.139Z,14.43
2018-06-21T22:13:37.193Z,14.38
2018-06-21T22:16:06.253Z,14.19
2018-06-21T22:18:35.301Z,14.16
2018-06-21T22:21:04.345Z,14.26
2018-06-21T22:23:33.402Z,14.18
2018-06-21T22:26:02.441Z,14.23
2018-06-21T22:28:31.516Z,13.94
2018-06-21T22:31:00.565Z,14.02
2018-06-21T22:33:29.879Z,14.11
2018-06-21T22:35:58.984Z,14.34
2018-06-21T22:38:28.140Z,14.09
2018-06-21T22:40:57.157Z,14.24
2018-06-21T22:43:26.197Z,14.28
2018-06-21T22:45:55.257Z,14.07
2018-06-21T22:48:24.309Z,13.92
2018-06-21T22:50:53.422Z,14.12
2018-06-21T22:53:22.533Z,13.89
2018-06-21T22:55:51.628Z,13.94
2018-06-21T22:58:20.685Z,13.84
2018-06-21T23:00:49.737Z,13.77
2018-06-21T23:03:18.802Z,13.83
2018-06-21T23:05:47.865Z,13.91
2018-06-21T23:08:16.913Z,13.76
2018-06-21T23:10:45.969Z,13.90
2018-06-21T23:13:15.011Z,13.91
2018-06-21T23:15:44.093Z,13.75
2018-06-21T23:18:19.273Z,13.65
2018-06-21T23:20:48.321Z,13.91
2018-06-21T23:23:17.479Z,13.64
2018-06-21T23:25:46.537Z,13.54
2018-06-21T23:28:15.602Z,13.60
2018-06-21T23:30:44.705Z,13.80
2018-06-21T23:33:13.762Z,13.77
2018-06-21T23:35:42.942Z,13.85
2018-06-21T23:38:12.010Z,13.96
2018-06-21T23:40:41.053Z,13.87
2018-06-21T23:43:10.109Z,13.76
2018-06-21T23:45:40.037Z,13.61
2018-06-21T23:48:09.093Z,13.82
2018-06-21T23:50:38.170Z,13.76
2018-06-21T23:53:07.229Z,13.79
2018-06-21T23:55:36.294Z,13.55
2018-06-21T23:58:05.797Z,13.67
